createdAt,value
2017-04-08T00:00:09.169Z,0
2017-04-08T00:01:31.363Z,0
2017-04-08T00:02:54.054Z,0
2017-04-08T00:04:15.950Z,0
2017-04-08T00:05:38.190Z,0
2017-04-08T00:07:00.328Z,0
2017-04-08T00:08:22.060Z,0
2017-04-08T00:09:44.522Z,0
2017-04-08T00:11:06.665Z,0
2017-04-08T00:12:28.905Z,0
2017-04-08T00:13:51.289Z,0
2017-04-08T00:15:13.104Z,0
2017-04-08T00:16:34.932Z,0
2017-04-08T00:17:56.209Z,0
2017-04-08T00:19:18.342Z,0
2017-04-08T00:20:40.510Z,0
2017-04-08T00:22:02.659Z,0
2017-04-08T00:23:23.852Z,0
2017-04-08T00:24:46.647Z,0
2017-04-08T00:26:08.457Z,0
2017-04-08T00:27:30.600Z,0
2017-04-08T00:28:52.108Z,0
2017-04-08T00:30:14.829Z,0
2017-04-08T00:31:36.030Z,0
2017-04-08T00:32:57.891Z,0
2017-04-08T00:34:20.345Z,0
2017-04-08T00:35:42.161Z,0
2017-04-08T00:37:04.323Z,0
2017-04-08T00:38:26.161Z,0
2017-04-08T00:39:47.991Z,0
2017-04-08T00:41:10.409Z,0
2017-04-08T00:42:32.551Z,0
2017-04-08T00:43:54.718Z,0
2017-04-08T00:45:16.950Z,0
2017-04-08T00:46:39.753Z,0
2017-04-08T00:48:02.231Z,0
2017-04-08T00:49:24.438Z,0
2017-04-08T00:50:46.263Z,0
2017-04-08T00:52:09.000Z,0
2017-04-08T00:53:31.130Z,0
2017-04-08T00:54:52.643Z,0
2017-04-08T00:56:15.150Z,0
2017-04-08T00:57:37.332Z,0
2017-04-08T00:58:59.170Z,0
2017-04-08T01:00:21.309Z,0
2017-04-08T01:01:42.900Z,0
2017-04-08T01:03:05.386Z,0
2017-04-08T01:04:26.931Z,0
2017-04-08T01:05:49.194Z,0
2017-04-08T01:07:11.371Z,0
2017-04-08T01:08:33.539Z,0
2017-04-08T01:09:55.156Z,0
2017-04-08T01:11:17.620Z,0
2017-04-08T01:12:39.789Z,0
2017-04-08T01:14:02.245Z,0
2017-04-08T01:15:23.799Z,0
2017-04-08T01:16:45.617Z,0
2017-04-08T01:18:07.741Z,0
2017-04-08T01:19:30.617Z,0
2017-04-08T01:20:52.750Z,0
2017-04-08T01:22:14.904Z,0
2017-04-08T01:23:36.506Z,0
2017-04-08T01:24:58.269Z,0
2017-04-08T01:26:20.716Z,0
2017-04-08T01:27:42.547Z,0
2017-04-08T01:29:04.153Z,0
2017-04-08T01:30:26.658Z,0
2017-04-08T01:31:48.479Z,0
2017-04-08T01:33:10.610Z,0
2017-04-08T01:34:32.466Z,0
2017-04-08T01:35:54.539Z,0
2017-04-08T01:37:16.049Z,0
2017-04-08T01:38:37.900Z,0
2017-04-08T01:39:59.410Z,0
2017-04-08T01:41:22.169Z,0
2017-04-08T01:42:44.320Z,0
2017-04-08T01:44:05.825Z,0
2017-04-08T01:45:27.967Z,0
2017-04-08T01:46:50.039Z,0
2017-04-08T01:48:11.858Z,0
2017-04-08T01:49:34.318Z,0
2017-04-08T01:50:55.925Z,0
2017-04-08T01:52:17.730Z,0
2017-04-08T01:53:39.636Z,0
2017-04-08T01:55:02.154Z,0
2017-04-08T01:56:24.298Z,0
2017-04-08T01:57:47.057Z,0
2017-04-08T01:59:09.297Z,0
2017-04-08T02:00:31.130Z,0
2017-04-08T02:01:53.001Z,0
2017-04-08T02:03:15.396Z,0
2017-04-08T02:04:37.537Z,0
2017-04-08T02:05:59.364Z,0
2017-04-08T02:07:21.831Z,0
2017-04-08T02:08:43.960Z,0
2017-04-08T02:10:06.095Z,0
2017-04-08T02:11:28.229Z,0
2017-04-08T02:12:50.394Z,0
2017-04-08T02:14:12.460Z,0
2017-04-08T02:15:34.606Z,0
2017-04-08T02:16:57.067Z,0
2017-04-08T02:18:18.878Z,0
2017-04-08T02:19:41.048Z,0
2017-04-08T02:21:02.870Z,0
2017-04-08T02:22:24.387Z,0
2017-04-08T02:23:45.929Z,0
2017-04-08T02:25:08.397Z,0
2017-04-08T02:26:30.232Z,0
2017-04-08T02:27:52.050Z,0
2017-04-08T02:29:14.196Z,0
2017-04-08T02:30:36.891Z,0
2017-04-08T02:31:59.434Z,0
2017-04-08T02:33:21.582Z,0
2017-04-08T02:34:43.085Z,0
2017-04-08T02:36:05.188Z,0
2017-04-08T02:37:27.340Z,0
2017-04-08T02:38:49.500Z,0
2017-04-08T02:40:11.424Z,0
2017-04-08T02:41:33.999Z,0
2017-04-08T02:42:56.438Z,0
2017-04-08T02:44:18.267Z,0
2017-04-08T02:45:40.741Z,0
2017-04-08T02:47:02.855Z,0
2017-04-08T02:48:25.328Z,0
2017-04-08T02:49:47.468Z,0
2017-04-08T02:51:09.712Z,0
2017-04-08T02:52:31.517Z,0
2017-04-08T02:53:53.039Z,0
2017-04-08T02:55:14.560Z,0
2017-04-08T02:56:36.380Z,0
2017-04-08T02:57:58.429Z,0
2017-04-08T02:59:20.572Z,0
2017-04-08T03:00:43.070Z,0
2017-04-08T03:02:05.213Z,0
2017-04-08T03:03:27.639Z,0
2017-04-08T03:04:49.893Z,0
2017-04-08T03:06:11.833Z,0
2017-04-08T03:07:33.985Z,0
2017-04-08T03:08:56.429Z,0
2017-04-08T03:10:18.880Z,0
2017-04-08T03:11:40.702Z,0
2017-04-08T03:13:02.519Z,0
2017-04-08T03:14:25.007Z,0
2017-04-08T03:15:46.202Z,0
2017-04-08T03:17:08.019Z,0
2017-04-08T03:18:30.507Z,0
2017-04-08T03:19:52.387Z,0
2017-04-08T03:21:14.581Z,0
2017-04-08T03:22:36.723Z,0
2017-04-08T03:23:58.247Z,0
2017-04-08T03:25:21.073Z,0
2017-04-08T03:26:42.894Z,0
2017-04-08T03:28:03.770Z,0
2017-04-08T03:29:25.897Z,0
2017-04-08T03:30:47.362Z,0
2017-04-08T03:32:09.876Z,0
2017-04-08T03:33:31.698Z,0
2017-04-08T03:34:53.867Z,0
2017-04-08T03:36:15.307Z,0
2017-04-08T03:37:37.436Z,0
2017-04-08T03:38:58.710Z,0
2017-04-08T03:40:21.158Z,0
2017-04-08T03:41:43.229Z,0
2017-04-08T03:43:05.381Z,0
2017-04-08T03:44:26.918Z,0
2017-04-08T03:45:48.728Z,0
2017-04-08T03:47:11.249Z,0
2017-04-08T03:48:33.409Z,0
2017-04-08T03:49:55.231Z,0
2017-04-08T03:51:17.678Z,0
2017-04-08T03:52:39.972Z,0
2017-04-08T03:54:01.778Z,0
2017-04-08T03:55:23.318Z,0
2017-04-08T03:56:44.524Z,0
2017-04-08T03:58:06.638Z,0
2017-04-08T03:59:28.580Z,0
2017-04-08T04:00:50.429Z,0
2017-04-08T04:02:12.654Z,0
2017-04-08T04:03:34.800Z,0
2017-04-08T04:04:57.254Z,0
2017-04-08T04:06:18.773Z,0
2017-04-08T04:07:41.258Z,0
2017-04-08T04:09:03.079Z,0
2017-04-08T04:10:24.966Z,0
2017-04-08T04:11:46.797Z,0
2017-04-08T04:13:09.128Z,0
2017-04-08T04:14:31.194Z,4
2017-04-08T04:15:53.313Z,4
2017-04-08T04:17:15.459Z,4
2017-04-08T04:18:37.719Z,4
2017-04-08T04:20:00.155Z,4
2017-04-08T04:21:21.976Z,4
2017-04-08T04:22:44.432Z,8
2017-04-08T04:24:06.587Z,8
2017-04-08T04:25:28.653Z,12
2017-04-08T04:26:50.858Z,12
2017-04-08T04:28:13.048Z,16
2017-04-08T04:29:34.886Z,16
2017-04-08T04:30:57.023Z,20
2017-04-08T04:32:18.873Z,24
2017-04-08T04:33:41.063Z,28
2017-04-08T04:35:03.267Z,40
2017-04-08T04:36:25.023Z,56
2017-04-08T04:37:46.838Z,68
2017-04-08T04:39:08.978Z,80
2017-04-08T04:40:30.792Z,104
2017-04-08T04:41:52.607Z,112
2017-04-08T04:43:14.146Z,120
2017-04-08T04:44:35.642Z,140
2017-04-08T04:45:57.517Z,164
2017-04-08T04:47:19.940Z,164
2017-04-08T04:48:42.072Z,200
2017-04-08T04:50:03.678Z,216
2017-04-08T04:51:25.527Z,236
2017-04-08T04:52:47.598Z,252
2017-04-08T04:54:09.113Z,252
2017-04-08T04:55:30.924Z,252
2017-04-08T04:56:53.067Z,268
2017-04-08T04:58:15.504Z,272
2017-04-08T04:59:36.698Z,260
2017-04-08T05:00:58.196Z,256
2017-04-08T05:02:19.694Z,276
2017-04-08T05:03:41.469Z,308
2017-04-08T05:05:03.046Z,360
2017-04-08T05:06:24.560Z,392
2017-04-08T05:07:47.030Z,396
2017-04-08T05:09:09.729Z,420
2017-04-08T05:10:32.268Z,480
2017-04-08T05:11:54.096Z,504
2017-04-08T05:13:15.927Z,544
2017-04-08T05:14:37.418Z,576
2017-04-08T05:15:58.613Z,592
2017-04-08T05:17:20.115Z,608
2017-04-08T05:18:42.240Z,660
2017-04-08T05:20:03.998Z,728
2017-04-08T05:21:25.186Z,772
2017-04-08T05:22:46.695Z,768
2017-04-08T05:24:08.854Z,804
2017-04-08T05:25:30.484Z,804
2017-04-08T05:26:52.000Z,840
2017-04-08T05:28:13.835Z,824
2017-04-08T05:29:35.711Z,936
2017-04-08T05:30:58.241Z,1200
2017-04-08T05:32:20.069Z,1300
2017-04-08T05:33:42.207Z,1472
2017-04-08T05:35:04.349Z,1464
2017-04-08T05:36:26.788Z,1328
2017-04-08T05:37:48.618Z,1484
2017-04-08T05:39:10.426Z,1440
2017-04-08T05:40:32.290Z,1516
2017-04-08T05:41:54.420Z,1748
2017-04-08T05:43:16.246Z,2008
2017-04-08T05:44:38.067Z,2064
2017-04-08T05:45:59.379Z,2020
2017-04-08T05:47:22.119Z,1896
2017-04-08T05:48:43.801Z,1996
2017-04-08T05:50:05.949Z,2316
2017-04-08T05:51:28.137Z,2352
2017-04-08T05:52:50.669Z,1968
2017-04-08T05:54:12.499Z,1872
2017-04-08T05:55:34.652Z,2068
2017-04-08T05:56:56.786Z,2096
2017-04-08T05:58:19.506Z,2376
2017-04-08T05:59:41.047Z,2520
2017-04-08T06:01:03.511Z,2488
2017-04-08T06:02:25.458Z,2484
2017-04-08T06:03:47.931Z,3020
2017-04-08T06:05:09.766Z,3220
2017-04-08T06:06:31.574Z,2528
2017-04-08T06:07:53.108Z,2292
2017-04-08T06:09:15.243Z,2728
2017-04-08T06:10:36.745Z,3148
2017-04-08T06:11:58.518Z,3332
2017-04-08T06:13:20.680Z,3436
2017-04-08T06:14:43.232Z,3432
2017-04-08T06:16:05.351Z,3140
2017-04-08T06:17:27.498Z,3592
2017-04-08T06:18:48.759Z,4096
2017-04-08T06:20:11.517Z,3576
2017-04-08T06:21:33.370Z,3324
2017-04-08T06:22:55.203Z,3316
2017-04-08T06:24:17.658Z,3392
2017-04-08T06:25:40.051Z,3336
2017-04-08T06:27:01.890Z,3328
2017-04-08T06:28:24.051Z,3240
2017-04-08T06:29:46.538Z,3320
2017-04-08T06:31:09.280Z,3964
2017-04-08T06:32:30.799Z,4832
2017-04-08T06:33:52.947Z,5084
2017-04-08T06:35:14.756Z,4768
2017-04-08T06:36:37.455Z,4652
2017-04-08T06:38:00.020Z,4832
2017-04-08T06:39:21.948Z,5460
2017-04-08T06:40:43.844Z,5600
2017-04-08T06:42:05.902Z,5152
2017-04-08T06:43:27.739Z,5396
2017-04-08T06:44:50.058Z,6040
2017-04-08T06:46:11.897Z,6096
2017-04-08T06:47:34.687Z,5472
2017-04-08T06:48:56.508Z,4868
2017-04-08T06:50:18.025Z,5196
2017-04-08T06:51:39.923Z,5904
2017-04-08T06:53:02.260Z,6392
2017-04-08T06:54:24.408Z,7008
2017-04-08T06:55:46.242Z,7304
2017-04-08T06:57:07.779Z,7476
2017-04-08T06:58:29.893Z,7608
2017-04-08T06:59:52.122Z,7576
2017-04-08T07:01:14.342Z,8084
2017-04-08T07:02:36.488Z,8160
2017-04-08T07:03:58.249Z,7948
2017-04-08T07:05:20.399Z,7424
2017-04-08T07:06:42.269Z,7476
2017-04-08T07:08:04.417Z,8304
2017-04-08T07:09:26.940Z,8776
2017-04-08T07:10:49.417Z,8372
2017-04-08T07:12:11.320Z,7900
2017-04-08T07:13:33.509Z,8164
2017-04-08T07:14:56.243Z,8280
2017-04-08T07:16:18.735Z,8296
2017-04-08T07:17:40.599Z,8304
2017-04-08T07:19:03.076Z,8752
2017-04-08T07:20:25.804Z,8924
2017-04-08T07:21:48.301Z,8888
2017-04-08T07:23:10.149Z,9196
2017-04-08T07:24:32.389Z,9264
2017-04-08T07:25:54.524Z,9016
2017-04-08T07:27:16.132Z,9532
2017-04-08T07:28:37.950Z,10396
2017-04-08T07:30:00.147Z,10348
2017-04-08T07:31:22.630Z,9648
2017-04-08T07:32:44.637Z,10140
2017-04-08T07:34:06.459Z,10944
2017-04-08T07:35:28.398Z,11128
2017-04-08T07:36:51.309Z,11240
2017-04-08T07:38:13.125Z,11668
2017-04-08T07:39:34.950Z,12784
2017-04-08T07:40:57.320Z,13556
2017-04-08T07:42:19.461Z,13760
2017-04-08T07:43:41.929Z,13672
2017-04-08T07:45:03.515Z,13536
2017-04-08T07:46:26.066Z,13748
2017-04-08T07:47:48.157Z,14544
2017-04-08T07:49:10.397Z,15108
2017-04-08T07:50:32.305Z,15384
2017-04-08T07:51:54.762Z,15692
2017-04-08T07:53:17.042Z,15848
2017-04-08T07:54:39.249Z,15256
2017-04-08T07:56:01.520Z,14572
2017-04-08T07:57:24.000Z,15660
2017-04-08T07:58:46.539Z,16512
2017-04-08T08:00:08.434Z,16320
2017-04-08T08:01:30.868Z,15692
2017-04-08T08:02:52.423Z,15732
2017-04-08T08:04:14.588Z,16672
2017-04-08T08:05:37.088Z,17280
2017-04-08T08:06:59.234Z,17440
2017-04-08T08:08:21.413Z,17184
2017-04-08T08:09:44.159Z,15868
2017-04-08T08:11:06.029Z,15208
2017-04-08T08:12:27.561Z,15708
2017-04-08T08:13:50.053Z,16092
2017-04-08T08:15:12.271Z,16864
2017-04-08T08:16:34.747Z,18048
2017-04-08T08:17:55.950Z,18688
2017-04-08T08:19:18.501Z,19552
2017-04-08T08:20:41.227Z,19968
2017-04-08T08:22:03.726Z,20352
2017-04-08T08:23:25.569Z,20416
2017-04-08T08:24:47.805Z,19968
2017-04-08T08:26:10.220Z,19328
2017-04-08T08:27:32.058Z,19040
2017-04-08T08:28:54.549Z,19520
2017-04-08T08:30:16.707Z,19904
2017-04-08T08:31:39.147Z,20640
2017-04-08T08:33:01.399Z,20800
2017-04-08T08:34:23.864Z,19744
2017-04-08T08:35:46.028Z,20000
2017-04-08T08:37:07.801Z,19616
2017-04-08T08:38:30.263Z,19264
2017-04-08T08:39:52.539Z,18720
2017-04-08T08:41:14.797Z,18400
2017-04-08T08:42:36.878Z,18240
2017-04-08T08:43:59.050Z,18784
2017-04-08T08:45:20.917Z,20224
2017-04-08T08:46:43.098Z,21472
2017-04-08T08:48:04.916Z,21856
2017-04-08T08:49:27.074Z,20800
2017-04-08T08:50:49.538Z,20480
2017-04-08T08:52:11.386Z,20960
2017-04-08T08:53:33.481Z,21536
2017-04-08T08:54:55.987Z,21632
2017-04-08T08:56:18.217Z,21664
2017-04-08T08:57:40.704Z,22112
2017-04-08T08:59:03.488Z,22432
2017-04-08T09:00:25.326Z,22656
2017-04-08T09:01:47.594Z,23072
2017-04-08T09:03:09.318Z,23264
2017-04-08T09:04:31.176Z,23264
2017-04-08T09:05:53.370Z,23168
2017-04-08T09:07:14.902Z,23168
2017-04-08T09:08:37.189Z,22656
2017-04-08T09:09:59.607Z,22080
2017-04-08T09:11:21.762Z,21568
2017-04-08T09:12:43.596Z,21056
2017-04-08T09:14:05.431Z,21376
2017-04-08T09:15:26.915Z,21600
2017-04-08T09:16:48.746Z,21408
2017-04-08T09:18:10.590Z,21152
2017-04-08T09:19:33.199Z,21216
2017-04-08T09:20:55.945Z,21568
2017-04-08T09:22:18.096Z,22240
2017-04-08T09:23:39.945Z,22496
2017-04-08T09:25:01.807Z,22336
2017-04-08T09:26:23.631Z,22112
2017-04-08T09:27:45.796Z,21504
2017-04-08T09:29:07.968Z,20672
2017-04-08T09:30:29.822Z,19424
2017-04-08T09:31:52.570Z,18176
2017-04-08T09:33:14.817Z,17664
2017-04-08T09:34:36.653Z,17888
2017-04-08T09:35:58.478Z,18496
2017-04-08T09:37:20.302Z,19232
2017-04-08T09:38:42.238Z,19872
2017-04-08T09:40:04.096Z,20448
2017-04-08T09:41:26.338Z,21056
2017-04-08T09:42:48.759Z,21696
2017-04-08T09:44:10.923Z,22304
2017-04-08T09:45:32.763Z,22496
2017-04-08T09:46:54.695Z,22624
2017-04-08T09:48:17.477Z,22656
2017-04-08T09:49:39.349Z,22528
2017-04-08T09:51:01.878Z,22272
2017-04-08T09:52:24.366Z,22080
2017-04-08T09:53:46.903Z,21792
2017-04-08T09:55:09.076Z,21344
2017-04-08T09:56:30.596Z,21408
2017-04-08T09:57:53.117Z,21536
2017-04-08T09:59:15.898Z,21952
2017-04-08T10:00:38.220Z,22208
2017-04-08T10:02:00.739Z,22400
2017-04-08T10:03:22.706Z,22400
2017-04-08T10:04:45.539Z,21824
2017-04-08T10:06:07.694Z,21472
2017-04-08T10:07:29.864Z,21184
2017-04-08T10:08:51.760Z,21408
2017-04-08T10:10:14.415Z,21760
2017-04-08T10:11:36.577Z,21824
2017-04-08T10:12:59.085Z,21856
2017-04-08T10:14:21.556Z,21728
2017-04-08T10:15:44.308Z,21696
2017-04-08T10:17:06.734Z,21664
2017-04-08T10:18:28.587Z,21280
2017-04-08T10:19:51.079Z,21120
2017-04-08T10:21:13.888Z,21056
2017-04-08T10:22:36.146Z,21248
2017-04-08T10:23:58.407Z,21248
2017-04-08T10:25:19.647Z,21216
2017-04-08T10:26:42.077Z,20864
2017-04-08T10:28:04.249Z,20608
2017-04-08T10:29:26.420Z,20736
2017-04-08T10:30:48.638Z,20992
2017-04-08T10:32:11.096Z,21216
2017-04-08T10:33:33.248Z,21664
2017-04-08T10:34:54.780Z,22112
2017-04-08T10:36:17.286Z,22368
2017-04-08T10:37:39.700Z,22560
2017-04-08T10:39:01.847Z,22784
2017-04-08T10:40:23.387Z,22720
2017-04-08T10:41:45.887Z,22112
2017-04-08T10:43:08.307Z,21728
2017-04-08T10:44:29.892Z,21888
2017-04-08T10:45:51.732Z,22112
2017-04-08T10:47:14.333Z,22304
2017-04-08T10:48:36.527Z,22400
2017-04-08T10:49:58.422Z,22336
2017-04-08T10:51:20.086Z,22176
2017-04-08T10:52:41.931Z,22144
2017-04-08T10:54:04.346Z,22336
2017-04-08T10:55:26.225Z,22528
2017-04-08T10:56:48.695Z,22528
2017-04-08T10:58:11.173Z,22336
2017-04-08T10:59:33.860Z,22112
2017-04-08T11:00:55.070Z,22176
2017-04-08T11:02:17.240Z,22240
2017-04-08T11:03:40.012Z,22112
2017-04-08T11:05:03.018Z,21856
2017-04-08T11:06:25.185Z,21664
2017-04-08T11:07:47.253Z,21632
2017-04-08T11:09:09.450Z,21664
2017-04-08T11:10:32.237Z,21632
2017-04-08T11:11:54.704Z,21248
2017-04-08T11:13:16.859Z,20768
2017-04-08T11:14:39.056Z,20512
2017-04-08T11:16:01.796Z,20544
2017-04-08T11:17:23.020Z,20608
2017-04-08T11:18:45.558Z,20608
2017-04-08T11:20:07.849Z,20288
2017-04-08T11:21:30.758Z,20032
2017-04-08T11:22:54.041Z,19616
2017-04-08T11:24:19.226Z,19264
2017-04-08T11:25:44.513Z,19136
2017-04-08T11:27:09.278Z,19072
2017-04-08T11:28:34.277Z,19040
2017-04-08T11:29:58.868Z,19424
2017-04-08T11:31:23.066Z,20096
2017-04-08T11:32:48.399Z,20608
2017-04-08T11:34:13.638Z,20704
2017-04-08T11:35:37.961Z,20544
2017-04-08T11:37:03.313Z,20320
2017-04-08T11:38:26.953Z,20128
2017-04-08T11:39:49.903Z,20096
2017-04-08T11:41:11.868Z,20192
2017-04-08T11:42:34.037Z,20064
2017-04-08T11:43:56.145Z,19808
2017-04-08T11:45:18.757Z,19712
2017-04-08T11:46:41.167Z,19680
2017-04-08T11:48:03.656Z,19584
2017-04-08T11:49:26.200Z,19328
2017-04-08T11:50:48.754Z,19072
2017-04-08T11:52:11.340Z,18912
2017-04-08T11:53:33.615Z,18784
2017-04-08T11:54:55.706Z,18624
2017-04-08T11:56:18.003Z,18464
2017-04-08T11:57:40.182Z,18496
2017-04-08T11:59:02.674Z,18336
2017-04-08T12:00:25.235Z,18048
2017-04-08T12:01:46.759Z,17888
2017-04-08T12:03:09.344Z,18048
2017-04-08T12:04:31.893Z,18272
2017-04-08T12:05:53.454Z,18368
2017-04-08T12:07:15.009Z,18464
2017-04-08T12:08:37.167Z,18592
2017-04-08T12:09:59.347Z,18656
2017-04-08T12:11:22.243Z,18656
2017-04-08T12:12:44.165Z,18560
2017-04-08T12:14:06.757Z,18400
2017-04-08T12:15:28.856Z,18368
2017-04-08T12:16:51.858Z,18208
2017-04-08T12:18:14.449Z,18016
2017-04-08T12:19:36.716Z,17888
2017-04-08T12:20:58.958Z,17888
2017-04-08T12:22:22.186Z,17984
2017-04-08T12:23:44.700Z,17792
2017-04-08T12:25:07.308Z,17312
2017-04-08T12:26:29.836Z,16736
2017-04-08T12:27:52.043Z,15788
2017-04-08T12:29:14.549Z,14844
2017-04-08T12:30:37.026Z,13972
2017-04-08T12:31:58.933Z,13456
2017-04-08T12:33:21.750Z,13516
2017-04-08T12:34:43.612Z,13716
2017-04-08T12:36:06.106Z,13604
2017-04-08T12:37:28.339Z,13376
2017-04-08T12:38:50.776Z,13136
2017-04-08T12:40:13.027Z,12668
2017-04-08T12:41:35.638Z,12244
2017-04-08T12:42:57.839Z,11892
2017-04-08T12:44:20.401Z,11568
2017-04-08T12:45:42.921Z,11216
2017-04-08T12:47:05.401Z,10892
2017-04-08T12:48:27.915Z,10588
2017-04-08T12:49:49.749Z,10208
2017-04-08T12:51:11.611Z,9792
2017-04-08T12:52:33.819Z,9216
2017-04-08T12:53:56.006Z,8700
2017-04-08T12:55:18.459Z,8224
2017-04-08T12:56:40.751Z,7912
2017-04-08T12:58:02.909Z,7816
2017-04-08T12:59:25.397Z,7944
2017-04-08T13:00:47.870Z,8232
2017-04-08T13:02:10.278Z,8612
2017-04-08T13:03:32.493Z,9000
2017-04-08T13:04:54.439Z,9312
2017-04-08T13:06:17.206Z,9636
2017-04-08T13:07:39.098Z,9968
2017-04-08T13:09:01.334Z,10344
2017-04-08T13:10:22.845Z,10692
2017-04-08T13:11:45.526Z,10972
2017-04-08T13:13:07.409Z,11200
2017-04-08T13:14:29.642Z,11444
2017-04-08T13:15:52.142Z,11740
2017-04-08T13:17:14.556Z,12136
2017-04-08T13:18:36.397Z,12540
2017-04-08T13:19:58.594Z,12816
2017-04-08T13:21:20.840Z,12956
2017-04-08T13:22:43.330Z,13100
2017-04-08T13:24:05.829Z,13192
2017-04-08T13:25:28.389Z,13212
2017-04-08T13:26:50.846Z,13280
2017-04-08T13:28:13.729Z,13320
2017-04-08T13:29:36.211Z,13216
2017-04-08T13:30:58.468Z,12936
2017-04-08T13:32:20.728Z,12712
2017-04-08T13:33:43.194Z,12496
2017-04-08T13:35:05.671Z,12252
2017-04-08T13:36:27.543Z,11968
2017-04-08T13:37:49.398Z,11688
2017-04-08T13:39:11.498Z,11400
2017-04-08T13:40:33.361Z,11184
2017-04-08T13:41:55.616Z,11040
2017-04-08T13:43:17.520Z,10880
2017-04-08T13:44:40.278Z,10576
2017-04-08T13:46:02.501Z,10204
2017-04-08T13:47:24.348Z,9896
2017-04-08T13:48:46.907Z,9692
2017-04-08T13:50:08.781Z,9428
2017-04-08T13:51:31.241Z,9148
2017-04-08T13:52:53.418Z,8896
2017-04-08T13:54:15.298Z,8620
2017-04-08T13:55:37.163Z,8304
2017-04-08T13:56:59.098Z,8012
2017-04-08T13:58:21.559Z,7812
2017-04-08T13:59:43.726Z,7628
2017-04-08T14:01:06.508Z,7436
2017-04-08T14:02:28.351Z,7320
2017-04-08T14:03:50.292Z,7264
2017-04-08T14:05:12.856Z,7196
2017-04-08T14:06:35.335Z,7148
2017-04-08T14:07:57.538Z,7116
2017-04-08T14:09:19.717Z,6992
2017-04-08T14:10:41.258Z,6812
2017-04-08T14:12:03.798Z,6724
2017-04-08T14:13:25.358Z,6596
2017-04-08T14:14:47.521Z,6428
2017-04-08T14:16:09.689Z,6324
2017-04-08T14:17:31.779Z,6276
2017-04-08T14:18:53.956Z,6268
2017-04-08T14:20:16.119Z,6256
2017-04-08T14:21:38.612Z,6276
2017-04-08T14:23:00.848Z,6240
2017-04-08T14:24:22.762Z,6092
2017-04-08T14:25:45.237Z,5928
2017-04-08T14:27:07.720Z,5872
2017-04-08T14:28:30.559Z,5856
2017-04-08T14:29:53.029Z,5752
2017-04-08T14:31:15.522Z,5616
2017-04-08T14:32:37.989Z,5588
2017-04-08T14:34:00.439Z,5636
2017-04-08T14:35:22.478Z,5676
2017-04-08T14:36:44.358Z,5668
2017-04-08T14:38:06.898Z,5660
2017-04-08T14:39:29.377Z,5692
2017-04-08T14:40:51.536Z,5700
2017-04-08T14:42:14.002Z,5668
2017-04-08T14:43:36.181Z,5656
2017-04-08T14:44:58.610Z,5656
2017-04-08T14:46:20.769Z,5616
2017-04-08T14:47:43.319Z,5512
2017-04-08T14:49:05.773Z,5492
2017-04-08T14:50:28.541Z,5560
2017-04-08T14:51:51.059Z,5564
2017-04-08T14:53:13.239Z,5552
2017-04-08T14:54:35.728Z,5628
2017-04-08T14:55:57.885Z,5700
2017-04-08T14:57:20.075Z,5660
2017-04-08T14:58:42.651Z,5596
2017-04-08T15:00:04.625Z,5564
2017-04-08T15:01:26.767Z,5564
2017-04-08T15:02:48.315Z,5560
2017-04-08T15:04:10.162Z,5584
2017-04-08T15:05:32.328Z,5608
2017-04-08T15:06:54.414Z,5568
2017-04-08T15:08:16.309Z,5592
2017-04-08T15:09:38.618Z,5676
2017-04-08T15:11:00.498Z,5672
2017-04-08T15:12:22.977Z,5720
2017-04-08T15:13:45.132Z,5896
2017-04-08T15:15:07.340Z,6012
2017-04-08T15:16:29.234Z,5980
2017-04-08T15:17:51.291Z,6000
2017-04-08T15:19:13.115Z,6124
2017-04-08T15:20:35.351Z,6144
2017-04-08T15:21:56.879Z,6088
2017-04-08T15:23:19.301Z,6184
2017-04-08T15:24:41.459Z,6264
2017-04-08T15:26:03.297Z,6204
2017-04-08T15:27:25.153Z,6184
2017-04-08T15:28:47.619Z,6204
2017-04-08T15:30:09.877Z,6116
2017-04-08T15:31:32.349Z,6032
2017-04-08T15:32:54.886Z,5992
2017-04-08T15:34:17.618Z,5944
2017-04-08T15:35:39.458Z,5948
2017-04-08T15:37:00.992Z,5968
2017-04-08T15:38:22.843Z,5976
2017-04-08T15:39:45.310Z,5992
2017-04-08T15:41:06.936Z,5856
2017-04-08T15:42:29.457Z,5724
2017-04-08T15:43:51.630Z,5704
2017-04-08T15:45:14.362Z,5644
2017-04-08T15:46:36.529Z,5484
2017-04-08T15:47:58.698Z,5340
2017-04-08T15:49:21.189Z,5284
2017-04-08T15:50:43.979Z,5232
2017-04-08T15:52:06.297Z,5136
2017-04-08T15:53:28.447Z,5056
2017-04-08T15:54:49.679Z,5020
2017-04-08T15:56:11.919Z,5048
2017-04-08T15:57:34.400Z,5144
2017-04-08T15:58:56.897Z,5164
2017-04-08T16:00:19.053Z,5144
2017-04-08T16:01:41.772Z,5148
2017-04-08T16:03:04.287Z,5124
2017-04-08T16:04:26.429Z,5144
2017-04-08T16:05:48.934Z,5076
2017-04-08T16:07:11.639Z,5044
2017-04-08T16:08:33.778Z,5096
2017-04-08T16:09:55.950Z,5044
2017-04-08T16:11:17.787Z,5008
2017-04-08T16:12:40.258Z,4892
2017-04-08T16:14:02.419Z,4756
2017-04-08T16:15:24.699Z,4680
2017-04-08T16:16:46.839Z,4572
2017-04-08T16:18:10.268Z,4544
2017-04-08T16:19:32.433Z,4408
2017-04-08T16:20:54.920Z,4332
2017-04-08T16:22:17.388Z,4260
2017-04-08T16:23:39.546Z,4172
2017-04-08T16:25:01.832Z,4148
2017-04-08T16:26:24.023Z,4112
2017-04-08T16:27:46.568Z,4012
2017-04-08T16:29:09.029Z,3968
2017-04-08T16:30:31.211Z,3920
2017-04-08T16:31:53.668Z,3828
2017-04-08T16:33:15.835Z,3800
2017-04-08T16:34:38.316Z,3772
2017-04-08T16:36:00.536Z,3656
2017-04-08T16:37:23.045Z,3628
2017-04-08T16:38:45.538Z,3600
2017-04-08T16:40:07.858Z,3500
2017-04-08T16:41:29.730Z,3364
2017-04-08T16:42:51.715Z,3228
2017-04-08T16:44:14.201Z,3076
2017-04-08T16:45:37.166Z,2912
2017-04-08T16:46:59.094Z,2804
2017-04-08T16:48:20.912Z,2692
2017-04-08T16:49:43.124Z,2572
2017-04-08T16:51:05.278Z,2444
2017-04-08T16:52:27.522Z,2408
2017-04-08T16:53:49.775Z,2404
2017-04-08T16:55:11.987Z,2364
2017-04-08T16:56:34.391Z,2332
2017-04-08T16:57:56.570Z,2276
2017-04-08T16:59:18.717Z,2188
2017-04-08T17:00:40.953Z,2116
2017-04-08T17:02:03.496Z,2000
2017-04-08T17:03:25.041Z,1896
2017-04-08T17:04:47.549Z,1964
2017-04-08T17:06:09.447Z,1892
2017-04-08T17:07:31.866Z,1832
2017-04-08T17:08:54.044Z,1816
2017-04-08T17:10:15.878Z,1848
2017-04-08T17:11:37.721Z,1844
2017-04-08T17:13:00.380Z,1788
2017-04-08T17:14:22.229Z,1740
2017-04-08T17:15:44.704Z,1712
2017-04-08T17:17:06.559Z,1704
2017-04-08T17:18:29.349Z,1696
2017-04-08T17:19:51.838Z,1668
2017-04-08T17:21:13.999Z,1660
2017-04-08T17:22:36.526Z,1624
2017-04-08T17:23:59.368Z,1560
2017-04-08T17:25:21.239Z,1516
2017-04-08T17:26:43.741Z,1452
2017-04-08T17:28:06.318Z,1412
2017-04-08T17:29:27.520Z,1384
2017-04-08T17:30:49.339Z,1340
2017-04-08T17:32:11.479Z,1296
2017-04-08T17:33:33.700Z,1280
2017-04-08T17:34:56.094Z,1264
2017-04-08T17:36:18.339Z,1220
2017-04-08T17:37:40.989Z,1176
2017-04-08T17:39:03.501Z,1148
2017-04-08T17:40:26.460Z,1124
2017-04-08T17:41:47.989Z,1088
2017-04-08T17:43:09.523Z,1028
2017-04-08T17:44:31.685Z,976
2017-04-08T17:45:54.483Z,928
2017-04-08T17:47:16.949Z,880
2017-04-08T17:48:39.134Z,836
2017-04-08T17:50:01.368Z,788
2017-04-08T17:51:23.909Z,744
2017-04-08T17:52:46.066Z,712
2017-04-08T17:54:08.521Z,676
2017-04-08T17:55:30.694Z,648
2017-04-08T17:56:53.130Z,620
2017-04-08T17:58:14.985Z,584
2017-04-08T17:59:36.823Z,544
2017-04-08T18:00:59.126Z,508
2017-04-08T18:02:20.652Z,440
2017-04-08T18:03:42.843Z,400
2017-04-08T18:05:04.378Z,364
2017-04-08T18:06:26.883Z,332
2017-04-08T18:07:49.299Z,300
2017-04-08T18:09:10.923Z,268
2017-04-08T18:10:33.125Z,236
2017-04-08T18:11:55.079Z,208
2017-04-08T18:13:17.478Z,188
2017-04-08T18:14:39.954Z,168
2017-04-08T18:16:02.138Z,144
2017-04-08T18:17:24.096Z,124
2017-04-08T18:18:46.567Z,112
2017-04-08T18:20:08.758Z,136
2017-04-08T18:21:30.262Z,120
2017-04-08T18:22:52.113Z,108
2017-04-08T18:24:14.608Z,100
2017-04-08T18:25:36.778Z,88
2017-04-08T18:26:58.639Z,80
2017-04-08T18:28:20.771Z,72
2017-04-08T18:29:42.873Z,68
2017-04-08T18:31:05.258Z,24
2017-04-08T18:32:27.099Z,20